Time;durP1;ratioP1;P1;durP2;ratioP2;P2;SDS_P1;SDS_P2;PMS_P1;PMS_P2;Temp;Humidity;BMP_temperature;BMP_pressure;BME280_temperature;BME280_humidity;BME280_pressure;Samples;Min_cycle;Max_cycle;Signal;HPM_P1;HPM_P2
2021/01/18 00:01:54;;;;;;;16.47;4.00;;;4.40;94.10;;;;;;4921495;29;20110;-73
2021/01/18 00:04:19;;;;;;;20.10;4.53;;;4.30;94.00;;;;;;4905838;29;20035;-73
2021/01/18 00:06:45;;;;;;;21.10;4.80;;;4.30;94.00;;;;;;4905891;29;20032;-75
2021/01/18 00:09:11;;;;;;;18.77;4.77;;;4.30;94.20;;;;;;4906243;29;20469;-73
2021/01/18 00:11:36;;;;;;;20.20;5.17;;;4.30;94.50;;;;;;4921723;29;20030;-74
2021/01/18 00:14:02;;;;;;;18.10;4.27;;;4.30;94.20;;;;;;4938440;29;20036;-74
2021/01/18 00:16:27;;;;;;;20.33;4.97;;;4.30;94.20;;;;;;4921340;29;20042;-74
2021/01/18 00:18:53;;;;;;;21.43;5.77;;;4.30;94.20;;;;;;4890054;29;20110;-74
2021/01/18 00:21:19;;;;;;;16.63;4.20;;;4.30;94.10;;;;;;4938191;29;20420;-74
2021/01/18 00:23:44;;;;;;;22.20;4.57;;;4.30;94.10;;;;;;4921061;29;20042;-74
2021/01/18 00:26:11;;;;;;;12.57;4.17;;;4.30;94.00;;;;;;4905452;29;20079;-74
2021/01/18 00:28:37;;;;;;;21.73;5.00;;;4.20;93.90;;;;;;4938182;29;20027;-74
2021/01/18 00:31:04;;;;;;;18.47;5.33;;;4.20;93.90;;;;;;4937957;29;20086;-74
2021/01/18 00:33:29;;;;;;;18.53;5.17;;;4.20;93.90;;;;;;4938391;29;20054;-74
2021/01/18 00:35:55;;;;;;;21.27;4.90;;;4.20;94.00;;;;;;4920933;29;20453;-74
2021/01/18 00:38:21;;;;;;;25.97;6.73;;;4.20;94.10;;;;;;4920707;29;20032;-84
2021/01/18 00:40:47;;;;;;;22.50;5.60;;;4.30;94.20;;;;;;4920991;29;20111;-83
2021/01/18 00:43:12;;;;;;;18.53;5.93;;;4.20;94.20;;;;;;4920812;29;20036;-83
2021/01/18 00:45:38;;;;;;;26.10;6.10;;;4.20;94.20;;;;;;4921274;29;20028;-84
2021/01/18 00:48:04;;;;;;;16.50;5.33;;;4.30;94.20;;;;;;4937869;29;20369;-84
2021/01/18 00:50:30;;;;;;;19.40;5.70;;;4.30;94.50;;;;;;4937587;29;20096;-84
2021/01/18 00:52:58;;;;;;;24.57;5.90;;;4.30;94.30;;;;;;4920634;29;20035;-83
2021/01/18 00:55:25;;;;;;;16.77;5.30;;;4.40;94.30;;;;;;4920824;29;20395;-84
2021/01/18 00:57:51;;;;;;;20.80;5.63;;;4.40;94.30;;;;;;4920915;29;20090;-84
2021/01/18 01:00:22;;;;;;;25.43;6.43;;;4.30;94.30;;;;;;4936890;29;20038;-83
2021/01/18 01:02:49;;;;;;;22.57;6.07;;;4.40;94.30;;;;;;4920399;29;20655;-84
2021/01/18 01:05:19;;;;;;;24.83;7.37;;;4.40;94.30;;;;;;4920277;29;20019;-84
2021/01/18 01:07:50;;;;;;;21.40;7.47;;;4.40;94.30;;;;;;4920939;29;20034;-84
2021/01/18 01:10:28;;;;;;;21.40;6.13;;;4.40;94.30;;;;;;4937365;29;20023;-74
2021/01/18 01:13:07;;;;;;;22.90;6.63;;;4.40;94.20;;;;;;4937482;29;20087;-75
2021/01/18 01:15:34;;;;;;;14.97;5.77;;;4.40;94.20;;;;;;4937419;29;20058;-74
2021/01/18 01:18:00;;;;;;;17.40;6.60;;;4.50;94.10;;;;;;4904513;29;20493;-74
2021/01/18 01:20:26;;;;;;;14.43;6.03;;;4.40;94.10;;;;;;4920163;29;20055;-74
2021/01/18 01:22:54;;;;;;;18.87;6.53;;;4.40;94.00;;;;;;4919739;29;20387;-74
2021/01/18 01:25:22;;;;;;;17.27;6.23;;;4.30;94.00;;;;;;4920015;29;20078;-74
2021/01/18 01:27:48;;;;;;;16.17;5.50;;;4.20;93.90;;;;;;4919803;29;20496;-74
2021/01/18 01:30:16;;;;;;;18.43;6.80;;;4.30;93.90;;;;;;4904219;29;20126;-74
2021/01/18 01:32:43;;;;;;;18.43;6.40;;;4.30;93.90;;;;;;4919750;29;20027;-74
2021/01/18 01:35:10;;;;;;;16.10;6.37;;;4.30;94.00;;;;;;4919855;29;20110;-74
2021/01/18 01:37:37;;;;;;;21.77;7.30;;;4.30;94.00;;;;;;4920008;29;20036;-74
2021/01/18 01:40:07;;;;;;;20.13;6.53;;;4.30;94.30;;;;;;4919607;29;20118;-74
2021/01/18 01:42:33;;;;;;;26.50;6.67;;;4.30;94.00;;;;;;4904309;29;20163;-74
2021/01/18 01:44:58;;;;;;;17.73;6.40;;;4.30;94.10;;;;;;4919553;29;20119;-74
2021/01/18 01:47:30;;;;;;;20.47;6.97;;;4.30;94.00;;;;;;4903997;29;20400;-74
2021/01/18 01:49:56;;;;;;;17.53;6.93;;;4.20;94.00;;;;;;4936896;29;20034;-74
2021/01/18 01:52:24;;;;;;;20.07;6.57;;;4.20;93.90;;;;;;4919678;29;20036;-74
2021/01/18 01:54:54;;;;;;;18.43;6.30;;;4.20;93.90;;;;;;4919714;29;20024;-74
2021/01/18 01:57:20;;;;;;;16.57;7.07;;;4.10;93.70;;;;;;4919646;29;20024;-75
2021/01/18 01:59:45;;;;;;;20.73;5.97;;;4.10;93.70;;;;;;4904338;29;20784;-74
2021/01/18 02:02:14;;;;;;;19.03;5.77;;;4.00;93.60;;;;;;4903834;29;20028;-74
2021/01/18 02:04:40;;;;;;;19.67;6.20;;;4.00;93.60;;;;;;4919417;29;20026;-74
2021/01/18 02:07:25;;;;;;;15.60;5.80;;;3.90;93.70;;;;;;4919741;29;20020;-74
2021/01/18 02:09:52;;;;;;;22.63;5.97;;;3.90;93.70;;;;;;4919518;29;20020;-74
2021/01/18 02:12:18;;;;;;;19.00;5.70;;;3.90;93.60;;;;;;4919860;29;20032;-74
2021/01/18 02:14:52;;;;;;;21.60;7.07;;;3.80;93.70;;;;;;4919732;29;20131;-73
2021/01/18 02:17:29;;;;;;;16.93;6.03;;;3.80;93.80;;;;;;4919444;29;20036;-74
2021/01/18 02:20:07;;;;;;;15.10;6.00;;;3.80;93.80;;;;;;4919663;29;20055;-74
2021/01/18 02:23:16;;;;;;;18.63;5.40;;;3.80;93.80;;;;;;4919081;29;20050;-74
2021/01/18 02:25:56;;;;;;;19.83;6.67;;;3.80;93.90;;;;;;4918969;29;20020;-74
2021/01/18 02:28:37;;;;;;;14.90;6.27;;;3.70;93.90;;;;;;4936111;29;20024;-84
2021/01/18 02:31:21;;;;;;;16.60;5.63;;;3.70;93.90;;;;;;4935991;29;20098;-84
2021/01/18 02:33:55;;;;;;;21.33;5.30;;;3.80;93.90;;;;;;4936190;29;20091;-84
2021/01/18 02:36:39;;;;;;;18.25;6.10;;;3.70;93.80;;;;;;4919161;29;20027;-83
2021/01/18 02:39:07;;;;;;;19.98;6.40;;;3.70;93.80;;;;;;4919279;29;20036;-84
2021/01/18 02:41:39;;;;;;;24.30;6.70;;;3.70;93.90;;;;;;4936654;29;20078;-84
2021/01/18 02:44:13;;;;;;;18.73;6.63;;;3.70;93.90;;;;;;4936799;29;20043;-83
2021/01/18 02:46:38;;;;;;;15.30;5.47;;;3.70;94.00;;;;;;4919079;29;20472;-84
2021/01/18 02:49:05;;;;;;;21.20;5.90;;;3.70;94.00;;;;;;4903444;29;20099;-83
2021/01/18 02:51:34;;;;;;;18.43;6.00;;;3.70;93.90;;;;;;4919189;29;20023;-83
2021/01/18 02:54:02;;;;;;;15.43;5.67;;;3.60;93.80;;;;;;4936217;29;20119;-83
2021/01/18 02:56:31;;;;;;;13.87;5.53;;;3.50;94.00;;;;;;4936321;29;20034;-84
2021/01/18 02:59:02;;;;;;;21.37;6.80;;;3.50;93.80;;;;;;4919012;29;20511;-83
2021/01/18 03:02:12;;;;;;;14.07;5.53;;;3.50;93.70;;;;;;4919025;29;20087;-84
2021/01/18 03:04:59;;;;;;;16.70;6.03;;;3.50;93.80;;;;;;4925514;29;20055;-84
2021/01/18 03:07:37;;;;;;;16.37;5.53;;;3.50;93.80;;;;;;4936046;29;20024;-84
2021/01/18 03:10:07;;;;;;;22.90;6.10;;;3.40;93.70;;;;;;4935922;29;20034;-82
2021/01/18 03:12:45;;;;;;;24.77;7.67;;;3.40;93.80;;;;;;4935972;29;20028;-83
2021/01/18 03:15:13;;;;;;;21.03;8.23;;;3.40;93.80;;;;;;4935905;29;20032;-83
2021/01/18 03:17:41;;;;;;;20.70;7.93;;;3.40;93.90;;;;;;4918577;29;20440;-83
2021/01/18 03:20:08;;;;;;;19.40;6.70;;;3.30;93.90;;;;;;4935721;29;20038;-83
2021/01/18 03:22:34;;;;;;;27.70;8.47;;;3.40;94.00;;;;;;4936033;29;20107;-83
2021/01/18 03:25:05;;;;;;;21.30;7.57;;;3.30;94.00;;;;;;4939549;29;20063;-83
2021/01/18 03:27:47;;;;;;;20.37;9.33;;;3.30;94.00;;;;;;4938767;29;20046;-74
2021/01/18 03:30:13;;;;;;;22.23;8.17;;;3.30;94.30;;;;;;4921453;29;20028;-74
2021/01/18 03:32:39;;;;;;;25.23;7.50;;;3.30;94.10;;;;;;4938532;29;20032;-74
2021/01/18 03:35:05;;;;;;;18.87;7.40;;;3.30;94.10;;;;;;4938656;29;20103;-83
2021/01/18 03:37:31;;;;;;;19.07;7.10;;;3.20;94.00;;;;;;4938996;29;20046;-84
2021/01/18 03:39:56;;;;;;;17.50;7.77;;;3.20;94.10;;;;;;4921841;29;20130;-84
2021/01/18 03:42:22;;;;;;;20.23;7.90;;;3.20;94.10;;;;;;4921647;29;20052;-83
2021/01/18 03:44:47;;;;;;;25.93;9.30;;;3.20;94.10;;;;;;4922342;29;20043;-83
2021/01/18 03:47:13;;;;;;;19.43;7.63;;;3.10;94.10;;;;;;4921852;29;20059;-84
2021/01/18 03:49:38;;;;;;;19.83;7.43;;;3.10;94.20;;;;;;4921767;29;20028;-84
2021/01/18 03:52:04;;;;;;;21.23;8.17;;;3.10;94.10;;;;;;4922036;29;20087;-83
2021/01/18 03:54:30;;;;;;;19.03;7.87;;;3.10;94.20;;;;;;4938772;29;20032;-83
2021/01/18 03:56:55;;;;;;;20.87;9.33;;;3.10;94.20;;;;;;4921596;29;20027;-83
2021/01/18 03:59:21;;;;;;;23.30;9.00;;;3.00;94.40;;;;;;4905890;29;20020;-83
2021/01/18 04:01:46;;;;;;;21.33;9.03;;;3.00;94.40;;;;;;4938619;29;20036;-83
2021/01/18 04:04:12;;;;;;;30.10;8.80;;;3.10;94.50;;;;;;4938708;29;20436;-83
2021/01/18 04:06:41;;;;;;;19.77;8.33;;;3.00;94.50;;;;;;4905688;29;20484;-83
2021/01/18 04:09:07;;;;;;;25.27;8.47;;;3.00;94.60;;;;;;4938540;29;20032;-83
2021/01/18 04:11:33;;;;;;;18.87;8.20;;;3.10;94.60;;;;;;4938481;29;20365;-84
2021/01/18 04:13:59;;;;;;;27.43;8.40;;;3.10;94.70;;;;;;4921299;29;20055;-74
2021/01/18 04:16:25;;;;;;;24.27;7.80;;;3.10;94.60;;;;;;4921331;29;20114;-74
2021/01/18 04:18:51;;;;;;;21.53;8.23;;;3.10;94.60;;;;;;4921513;29;20111;-74
2021/01/18 04:21:17;;;;;;;19.70;8.40;;;3.10;94.50;;;;;;4905499;29;20122;-74
2021/01/18 04:23:43;;;;;;;24.20;8.80;;;3.10;94.50;;;;;;4938306;29;20027;-74
2021/01/18 04:26:09;;;;;;;24.63;8.53;;;3.10;94.50;;;;;;4905634;29;20019;-74
2021/01/18 04:28:34;;;;;;;25.23;10.37;;;3.10;94.50;;;;;;4921336;29;20420;-74
2021/01/18 04:31:00;;;;;;;21.87;8.60;;;3.00;94.50;;;;;;4921328;29;20468;-74
2021/01/18 04:33:26;;;;;;;25.30;8.80;;;3.00;94.60;;;;;;4921444;29;20036;-74
2021/01/18 04:35:55;;;;;;;21.60;8.97;;;3.00;94.60;;;;;;4919909;29;20433;-74
2021/01/18 04:38:20;;;;;;;23.60;9.00;;;3.00;94.60;;;;;;4920910;29;20475;-74
2021/01/18 04:40:46;;;;;;;25.97;9.00;;;3.00;94.60;;;;;;4905270;29;20131;-74
2021/01/18 04:43:15;;;;;;;24.30;8.33;;;3.10;94.60;;;;;;4905301;29;20070;-74
2021/01/18 04:45:42;;;;;;;22.33;8.40;;;3.00;94.60;;;;;;4905179;29;20118;-74
2021/01/18 04:48:08;;;;;;;25.47;9.37;;;3.00;94.60;;;;;;4920846;29;20020;-74
2021/01/18 04:50:34;;;;;;;23.97;9.33;;;3.00;94.70;;;;;;4920836;29;20028;-73
2021/01/18 04:53:01;;;;;;;26.33;8.97;;;3.00;94.60;;;;;;4937510;29;20039;-74
2021/01/18 04:55:30;;;;;;;23.03;9.13;;;3.00;94.60;;;;;;4905278;29;20028;-74
2021/01/18 04:58:07;;;;;;;28.53;9.77;;;3.00;94.60;;;;;;4937842;29;20028;-74
2021/01/18 05:00:44;;;;;;;27.10;9.17;;;3.00;94.60;;;;;;4919933;29;20111;-74
2021/01/18 05:03:13;;;;;;;21.03;9.57;;;3.00;94.60;;;;;;4919415;29;20396;-74
2021/01/18 05:05:47;;;;;;;25.57;9.37;;;3.00;94.60;;;;;;4919856;29;20011;-74
2021/01/18 05:08:50;;;;;;;22.33;9.43;;;3.00;94.60;;;;;;4937254;29;20059;-74
2021/01/18 05:11:16;;;;;;;24.67;8.90;;;3.00;94.70;;;;;;4919801;29;20039;-73
2021/01/18 05:13:44;;;;;;;28.67;9.43;;;3.00;94.70;;;;;;4920232;29;20028;-75
2021/01/18 05:16:10;;;;;;;29.43;10.00;;;3.10;94.80;;;;;;4904781;29;20039;-74
2021/01/18 05:18:38;;;;;;;27.00;11.83;;;3.10;94.80;;;;;;4920360;29;20504;-74
2021/01/18 05:21:06;;;;;;;26.17;11.00;;;3.10;94.80;;;;;;4904180;29;20032;-74
2021/01/18 05:23:45;;;;;;;24.57;9.60;;;3.10;94.80;;;;;;4937080;29;20106;-74
2021/01/18 05:26:27;;;;;;;26.20;10.10;;;3.10;94.80;;;;;;4919847;29;20024;-74
2021/01/18 05:28:55;;;;;;;26.43;11.60;;;3.20;94.80;;;;;;4919786;29;20551;-74
2021/01/18 05:31:35;;;;;;;20.50;9.87;;;3.10;94.80;;;;;;4919913;29;20034;-74
2021/01/18 05:34:04;;;;;;;28.57;10.67;;;3.20;94.90;;;;;;4919537;29;20032;-74
2021/01/18 05:36:38;;;;;;;22.77;10.37;;;3.20;94.90;;;;;;4919729;29;20039;-74
2021/01/18 05:39:17;;;;;;;28.98;10.30;;;3.30;95.00;;;;;;4919781;29;20028;-74
2021/01/18 05:41:45;;;;;;;31.17;10.30;;;3.30;95.00;;;;;;4937031;29;20508;-74
2021/01/18 05:44:11;;;;;;;31.43;11.17;;;3.30;95.00;;;;;;4919699;29;20163;-74
2021/01/18 05:46:39;;;;;;;26.00;11.37;;;3.30;95.00;;;;;;4919644;29;20027;-74
2021/01/18 05:49:15;;;;;;;32.90;13.27;;;3.40;95.00;;;;;;4919585;29;20034;-74
2021/01/18 05:51:41;;;;;;;29.73;12.70;;;3.40;95.00;;;;;;4919836;29;20020;-74
2021/01/18 05:54:12;;;;;;;31.63;11.83;;;3.40;95.00;;;;;;4919599;29;20035;-74
2021/01/18 05:56:46;;;;;;;26.57;10.57;;;3.40;95.00;;;;;;4936461;29;20107;-74
2021/01/18 05:59:19;;;;;;;;;;;3.50;95.00;;;;;;4920384;29;20043;-74
2021/01/18 06:01:46;;;;;;;26.40;10.07;;;3.40;95.00;;;;;;4919656;29;20262;-74
2021/01/18 06:04:14;;;;;;;27.67;10.40;;;3.50;95.00;;;;;;4936661;29;20024;-74
2021/01/18 06:07:03;;;;;;;33.00;12.40;;;3.40;94.90;;;;;;4919547;29;20399;-74
2021/01/18 06:09:48;;;;;;;30.40;11.90;;;3.50;95.00;;;;;;4919255;29;20020;-74
2021/01/18 06:12:21;;;;;;;32.87;12.17;;;3.50;95.10;;;;;;4936279;29;20028;-74
2021/01/18 06:15:10;;;;;;;28.57;11.47;;;3.50;95.10;;;;;;4907193;29;20035;-74
2021/01/18 06:17:47;;;;;;;29.60;11.37;;;3.60;95.10;;;;;;4938048;29;20412;-74
2021/01/18 06:20:23;;;;;;;29.17;11.07;;;3.50;95.00;;;;;;4955066;29;20050;-74
2021/01/18 06:22:59;;;;;;;29.80;10.63;;;3.60;95.00;;;;;;4938383;29;20035;-74
2021/01/18 06:25:35;;;;;;;24.93;10.00;;;3.60;95.00;;;;;;4923173;29;20130;-74
2021/01/18 06:28:01;;;;;;;28.90;10.57;;;3.50;94.90;;;;;;4938286;29;20110;-74
2021/01/18 06:30:32;;;;;;;37.50;11.73;;;3.60;95.30;;;;;;4955475;29;20027;-74
2021/01/18 06:33:11;;;;;;;30.87;11.40;;;3.50;95.00;;;;;;4938255;29;20031;-74
2021/01/18 06:35:37;;;;;;;30.17;11.20;;;3.60;95.00;;;;;;4932717;29;20031;-74
2021/01/18 06:38:05;;;;;;;30.13;10.60;;;3.60;95.00;;;;;;4931188;29;20031;-74
2021/01/18 06:40:37;;;;;;;32.07;9.73;;;3.50;95.00;;;;;;4922207;29;20122;-74
2021/01/18 06:43:04;;;;;;;29.90;10.60;;;3.60;95.30;;;;;;4937724;29;20071;-74
2021/01/18 06:45:41;;;;;;;38.20;11.10;;;3.60;95.10;;;;;;4922515;29;20075;-73
2021/01/18 06:48:08;;;;;;;26.60;11.97;;;3.60;95.20;;;;;;4938085;29;20684;-74
2021/01/18 06:50:36;;;;;;;35.70;11.57;;;3.60;95.50;;;;;;4955371;29;20032;-74
2021/01/18 06:53:13;;;;;;;28.23;11.77;;;3.60;95.20;;;;;;4920098;29;20024;-74
2021/01/18 06:55:57;;;;;;;27.10;12.00;;;3.60;95.20;;;;;;4919002;29;20392;-73
2021/01/18 06:58:31;;;;;;;;;;;3.60;95.20;;;;;;4937834;29;20024;-73
2021/01/18 07:01:00;;;;;;;34.17;11.43;;;3.60;95.40;;;;;;4939783;29;19914;-74
2021/01/18 07:03:39;;;;;;;30.63;12.20;;;3.70;95.30;;;;;;4922354;29;20652;-74
2021/01/18 07:06:28;;;;;;;32.70;12.57;;;3.70;95.40;;;;;;4922469;29;20618;-73
2021/01/18 07:09:00;;;;;;;38.00;12.83;;;3.70;95.40;;;;;;4942332;29;20015;-74
2021/01/18 07:11:27;;;;;;;34.10;12.83;;;3.70;95.40;;;;;;4922404;29;20037;-74
2021/01/18 07:13:53;;;;;;;32.17;12.53;;;3.70;95.40;;;;;;4939646;29;20139;-73
2021/01/18 07:16:20;;;;;;;39.80;13.77;;;3.70;95.40;;;;;;4922398;29;20495;-74
2021/01/18 07:18:57;;;;;;;43.97;14.33;;;3.70;95.40;;;;;;4891286;29;20068;-74
2021/01/18 07:21:26;;;;;;;34.27;13.30;;;3.70;95.30;;;;;;4922341;29;20027;-74
2021/01/18 07:24:00;;;;;;;39.47;13.33;;;3.70;95.30;;;;;;4922266;29;20472;-74
2021/01/18 07:26:36;;;;;;;33.60;13.07;;;3.70;95.40;;;;;;4922017;29;20118;-74
2021/01/18 07:29:07;;;;;;;37.67;12.50;;;3.70;95.40;;;;;;4922455;29;20034;-75
2021/01/18 07:31:36;;;;;;;36.33;12.67;;;3.80;95.40;;;;;;4922240;29;20028;-74
2021/01/18 07:34:11;;;;;;;33.73;13.97;;;3.70;95.40;;;;;;4906628;29;20042;-75
2021/01/18 07:36:37;;;;;;;37.30;15.07;;;3.80;95.50;;;;;;4922050;29;20032;-76
2021/01/18 07:39:47;;;;;;;38.13;14.67;;;3.80;95.40;;;;;;4890801;29;20032;-74
2021/01/18 07:42:29;;;;;;;30.47;13.47;;;3.80;95.40;;;;;;4934201;29;20051;-76
2021/01/18 07:45:16;;;;;;;36.43;14.20;;;3.90;95.50;;;;;;4921811;29;20032;-76
2021/01/18 07:47:54;;;;;;;33.37;13.37;;;3.90;95.50;;;;;;4905955;29;20476;-76
2021/01/18 07:50:28;;;;;;;34.03;14.80;;;3.90;95.50;;;;;;4922300;29;20032;-76
2021/01/18 07:53:01;;;;;;;33.40;14.45;;;3.90;95.50;;;;;;4923672;29;20031;-76
2021/01/18 07:55:27;;;;;;;39.47;14.55;;;3.90;95.50;;;;;;4951759;29;20019;-74
2021/01/18 07:57:53;;;;;;;35.77;14.33;;;4.00;95.50;;;;;;4915396;29;20043;-75
2021/01/18 08:00:18;;;;;;;28.03;12.57;;;4.00;95.50;;;;;;4932409;29;20484;-76
2021/01/18 08:03:11;;;;;;;34.37;14.50;;;4.00;95.60;;;;;;4939869;29;20045;-76
2021/01/18 08:05:42;;;;;;;30.50;13.70;;;4.00;95.50;;;;;;4939245;29;20030;-75
2021/01/18 08:08:18;;;;;;;29.00;13.53;;;4.10;95.60;;;;;;4909406;29;20031;-76
2021/01/18 08:10:54;;;;;;;37.60;15.43;;;4.10;95.60;;;;;;4957343;29;20114;-76
2021/01/18 08:13:41;;;;;;;41.60;16.43;;;4.10;95.60;;;;;;4931707;29;20075;-76
2021/01/18 08:16:25;;;;;;;36.10;14.57;;;4.10;95.80;;;;;;4949558;29;20415;-75
2021/01/18 08:18:58;;;;;;;34.78;14.40;;;4.20;95.60;;;;;;4927705;29;20090;-75
2021/01/18 08:21:39;;;;;;;34.45;15.18;;;4.20;95.50;;;;;;4957647;29;20039;-75
2021/01/18 08:24:06;;;;;;;39.30;14.50;;;4.20;95.50;;;;;;4940413;29;20032;-75
2021/01/18 08:26:49;;;;;;;38.67;16.83;;;4.20;95.50;;;;;;4937095;29;20032;-75
2021/01/18 08:29:34;;;;;;;41.25;15.88;;;4.20;95.60;;;;;;4937922;29;20024;-76
2021/01/18 08:32:31;;;;;;;35.65;14.73;;;4.20;95.60;;;;;;4920614;29;20110;-76
2021/01/18 08:35:02;;;;;;;27.03;13.53;;;4.30;95.60;;;;;;4920745;29;20028;-76
2021/01/18 08:37:30;;;;;;;35.30;14.50;;;4.30;95.60;;;;;;4946516;29;20043;-75
2021/01/18 08:40:01;;;;;;;35.77;13.53;;;4.30;95.60;;;;;;4935781;29;20038;-74
2021/01/18 08:42:29;;;;;;;33.23;14.57;;;4.30;95.60;;;;;;4939127;29;20126;-75
2021/01/18 08:45:22;;;;;;;38.93;13.50;;;4.50;95.60;;;;;;4915673;29;20026;-76
2021/01/18 08:47:59;;;;;;;29.57;13.83;;;4.40;95.50;;;;;;4936837;29;20028;-75
2021/01/18 08:50:46;;;;;;;35.37;15.60;;;4.40;95.80;;;;;;4920597;29;20069;-75
2021/01/18 08:53:34;;;;;;;35.17;13.90;;;4.40;95.50;;;;;;4923166;29;20035;-75
2021/01/18 08:56:06;;;;;;;31.40;14.43;;;4.50;95.50;;;;;;4936768;29;20028;-75
2021/01/18 08:58:42;;;;;;;32.97;13.53;;;4.50;95.50;;;;;;4936830;29;20090;-76
2021/01/18 09:01:19;;;;;;;36.13;15.10;;;4.70;95.50;;;;;;4929023;29;20031;-75
2021/01/18 09:03:46;;;;;;;41.40;14.10;;;4.60;95.50;;;;;;4936840;29;20030;-77
2021/01/18 09:06:12;;;;;;;34.87;15.03;;;4.60;95.50;;;;;;4937099;29;20091;-75
2021/01/18 09:08:42;;;;;;;33.93;15.53;;;4.60;95.40;;;;;;4956180;29;20028;-72
2021/01/18 09:11:09;;;;;;;28.77;14.77;;;4.70;95.50;;;;;;4938970;29;20031;-77
2021/01/18 09:13:36;;;;;;;36.70;17.23;;;4.60;95.40;;;;;;4938373;29;20026;-76
2021/01/18 09:16:07;;;;;;;32.90;14.10;;;4.80;95.40;;;;;;4956040;29;20019;-75
2021/01/18 09:18:34;;;;;;;33.00;14.57;;;4.80;95.40;;;;;;4955805;29;20471;-75
2021/01/18 09:21:00;;;;;;;34.93;16.27;;;4.80;95.40;;;;;;4906479;29;20031;-73
2021/01/18 09:23:26;;;;;;;38.13;15.63;;;4.90;95.40;;;;;;4906967;29;20024;-74
2021/01/18 09:26:01;;;;;;;35.17;16.20;;;5.00;95.40;;;;;;4906919;29;20043;-74
2021/01/18 09:28:26;;;;;;;;;;;4.90;95.30;;;;;;4955610;29;20103;-73
2021/01/18 09:30:52;;;;;;;30.63;15.90;;;5.00;95.30;;;;;;4932053;29;20013;-74
2021/01/18 09:33:17;;;;;;;34.30;15.27;;;4.90;95.20;;;;;;4923884;29;20048;-74
2021/01/18 09:35:44;;;;;;;29.67;15.37;;;5.00;95.20;;;;;;4920804;29;20484;-75
2021/01/18 09:38:11;;;;;;;38.00;17.47;;;5.00;95.40;;;;;;4937443;29;20063;-74
2021/01/18 09:40:41;;;;;;;31.93;15.17;;;5.00;95.10;;;;;;4922318;29;20035;-75
2021/01/18 09:43:08;;;;;;;39.63;15.13;;;5.00;95.10;;;;;;4908176;29;890472;-75
2021/01/18 09:45:35;;;;;;;32.30;15.07;;;5.00;95.10;;;;;;4955861;29;20110;-75
2021/01/18 09:48:06;;;;;;;34.27;14.73;;;5.00;95.10;;;;;;4938900;29;20111;-74
2021/01/18 09:50:34;;;;;;;33.30;14.27;;;5.10;95.10;;;;;;4915722;29;20380;-74
2021/01/18 09:53:04;;;;;;;27.10;14.83;;;5.10;95.10;;;;;;4917132;29;20031;-75
2021/01/18 09:55:47;;;;;;;30.63;14.70;;;5.10;95.10;;;;;;4927547;29;20416;-75
2021/01/18 09:58:19;;;;;;;31.33;13.10;;;5.20;95.10;;;;;;4921197;29;20032;-74
2021/01/18 10:00:47;;;;;;;30.37;13.60;;;5.20;95.00;;;;;;4930109;29;20107;-74
2021/01/18 10:03:31;;;;;;;27.27;12.67;;;5.30;95.00;;;;;;4927113;29;20095;-75
2021/01/18 10:06:14;;;;;;;26.02;14.30;;;5.30;94.90;;;;;;4936179;29;20024;-73
2021/01/18 10:08:43;;;;;;;36.63;14.47;;;5.40;94.80;;;;;;4943561;29;20015;-74
2021/01/18 10:11:09;;;;;;;26.83;12.93;;;5.50;94.60;;;;;;4952698;29;20114;-75
2021/01/18 10:13:35;;;;;;;30.70;14.33;;;5.40;94.50;;;;;;4939788;29;20035;-74
2021/01/18 10:16:12;;;;;;;32.00;15.03;;;5.50;94.40;;;;;;4940439;29;20031;-74
2021/01/18 10:18:42;;;;;;;30.23;13.40;;;5.50;94.40;;;;;;4949571;29;20027;-74
2021/01/18 10:21:10;;;;;;;34.13;14.33;;;5.50;94.30;;;;;;4955678;29;20062;-75
2021/01/18 10:23:44;;;;;;;33.07;14.77;;;5.50;94.20;;;;;;4937859;29;20059;-74
2021/01/18 10:26:17;;;;;;;;;;;5.50;94.10;;;;;;4938632;29;20052;-75
2021/01/18 10:29:05;;;;;;;28.47;15.37;;;5.50;94.10;;;;;;4938398;29;19906;-75
2021/01/18 10:31:32;;;;;;;31.23;13.73;;;5.50;94.00;;;;;;4922673;29;20023;-74
2021/01/18 10:34:13;;;;;;;27.77;12.47;;;5.60;94.00;;;;;;4937582;29;20046;-74
2021/01/18 10:36:45;;;;;;;25.40;12.40;;;5.70;94.10;;;;;;4938808;29;20046;-75
2021/01/18 10:39:34;;;;;;;25.97;12.63;;;5.70;94.00;;;;;;4925263;29;20028;-75
2021/01/18 10:42:06;;;;;;;27.23;12.53;;;5.80;93.80;;;;;;4947049;29;20502;-74
2021/01/18 10:44:33;;;;;;;26.27;13.90;;;5.80;93.90;;;;;;4939403;29;20098;-74
2021/01/18 10:46:59;;;;;;;29.97;13.30;;;6.00;93.70;;;;;;4920797;29;20375;-75
2021/01/18 10:49:29;;;;;;;25.77;12.77;;;6.10;93.30;;;;;;4922128;29;20035;-75
2021/01/18 10:52:10;;;;;;;26.83;14.07;;;6.10;93.20;;;;;;4942026;29;20070;-74
2021/01/18 10:54:37;;;;;;;25.60;13.63;;;6.10;93.00;;;;;;4946487;29;20471;-75
2021/01/18 10:57:19;;;;;;;27.10;14.33;;;6.20;93.00;;;;;;4923098;29;20032;-74
2021/01/18 10:59:45;;;;;;;27.50;14.40;;;6.10;92.60;;;;;;4918691;29;20039;-74
2021/01/18 11:02:13;;;;;;;30.87;15.10;;;6.10;92.50;;;;;;4918785;29;20349;-75
2021/01/18 11:04:46;;;;;;;29.67;14.37;;;6.10;92.40;;;;;;4918799;29;20555;-75
2021/01/18 11:07:13;;;;;;;32.17;15.00;;;6.10;92.50;;;;;;4903388;29;20483;-74
2021/01/18 11:09:41;;;;;;;26.53;14.30;;;6.10;92.50;;;;;;4902934;29;20387;-74
2021/01/18 11:12:07;;;;;;;32.33;13.77;;;6.10;92.50;;;;;;4943120;29;20110;-74
2021/01/18 11:14:34;;;;;;;30.10;13.83;;;6.20;92.50;;;;;;4921794;29;20042;-74
2021/01/18 11:17:07;;;;;;;33.07;14.33;;;6.20;92.50;;;;;;4921908;29;20131;-74
2021/01/18 11:19:34;;;;;;;29.70;13.43;;;6.20;92.70;;;;;;4954851;29;20037;-74
2021/01/18 11:22:00;;;;;;;25.17;12.83;;;6.20;92.40;;;;;;4937515;29;20037;-73
2021/01/18 11:24:25;;;;;;;29.00;13.43;;;6.20;92.30;;;;;;4946371;29;20032;-74
2021/01/18 11:26:52;;;;;;;34.97;13.53;;;6.20;92.20;;;;;;4934848;29;20039;-73
2021/01/18 11:29:19;;;;;;;26.33;12.37;;;6.20;92.20;;;;;;4910694;29;20476;-74
2021/01/18 11:31:46;;;;;;;33.23;13.63;;;6.20;92.20;;;;;;4917377;29;20039;-73
2021/01/18 11:34:13;;;;;;;32.20;14.47;;;6.20;92.20;;;;;;4917772;29;20031;-74
2021/01/18 11:36:39;;;;;;;24.50;12.50;;;6.20;92.10;;;;;;4903298;29;20040;-74
2021/01/18 11:39:06;;;;;;;29.27;13.13;;;6.10;92.10;;;;;;4918299;29;20023;-74
2021/01/18 11:41:36;;;;;;;31.13;11.97;;;6.10;92.40;;;;;;4927923;29;20047;-74
2021/01/18 11:44:04;;;;;;;22.13;11.33;;;6.10;92.10;;;;;;4938522;29;20122;-73
2021/01/18 11:46:29;;;;;;;29.70;12.67;;;6.10;92.10;;;;;;4940949;29;20478;-76
2021/01/18 11:48:55;;;;;;;25.47;11.47;;;6.10;92.00;;;;;;4909577;29;20027;-73
2021/01/18 11:51:21;;;;;;;28.57;11.77;;;6.10;92.00;;;;;;4958155;29;20035;-72
2021/01/18 11:53:47;;;;;;;28.60;11.30;;;6.10;92.00;;;;;;4924776;29;20509;-73
2021/01/18 11:56:13;;;;;;;24.03;10.80;;;6.10;92.00;;;;;;4940800;29;20058;-73
2021/01/18 11:58:39;;;;;;;21.93;10.23;;;6.10;92.00;;;;;;4924790;29;20093;-73
2021/01/18 12:01:05;;;;;;;19.23;9.03;;;6.10;92.00;;;;;;4940614;29;20035;-73
2021/01/18 12:03:30;;;;;;;28.97;10.87;;;6.20;92.00;;;;;;4940623;29;20031;-73
2021/01/18 12:05:56;;;;;;;23.97;9.80;;;6.20;91.90;;;;;;4940434;29;20110;-74
2021/01/18 12:08:21;;;;;;;22.40;8.47;;;6.20;91.80;;;;;;4924596;29;20031;-75
2021/01/18 12:10:47;;;;;;;21.53;9.20;;;6.30;91.90;;;;;;4957568;29;20031;-75
2021/01/18 12:13:13;;;;;;;25.47;8.97;;;6.30;91.70;;;;;;4908688;29;20031;-75
2021/01/18 12:15:39;;;;;;;20.57;7.37;;;6.30;91.60;;;;;;4940521;29;20035;-72
2021/01/18 12:18:05;;;;;;;22.50;8.60;;;6.30;91.60;;;;;;4955390;29;20035;-73
2021/01/18 12:20:31;;;;;;;22.47;7.97;;;6.40;92.10;;;;;;4904657;29;20024;-74
2021/01/18 12:22:57;;;;;;;15.63;6.67;;;6.40;91.60;;;;;;4905366;29;20054;-75
2021/01/18 12:25:25;;;;;;;22.43;7.53;;;6.50;91.60;;;;;;4920974;29;20035;-74
2021/01/18 12:27:52;;;;;;;19.57;7.97;;;6.50;91.50;;;;;;4938471;29;20027;-74
2021/01/18 12:30:18;;;;;;;23.23;8.57;;;6.50;91.30;;;;;;4938217;29;20036;-74
2021/01/18 12:32:44;;;;;;;21.30;7.27;;;6.50;91.30;;;;;;4936780;29;20040;-75
2021/01/18 12:35:11;;;;;;;31.60;8.80;;;6.50;91.30;;;;;;4920854;29;20032;-75
2021/01/18 12:37:37;;;;;;;20.10;7.67;;;6.50;91.40;;;;;;4937246;29;20047;-75
2021/01/18 12:40:07;;;;;;;27.70;8.73;;;6.50;91.40;;;;;;4940327;29;20043;-74
2021/01/18 12:42:34;;;;;;;20.37;8.00;;;6.60;91.50;;;;;;4908949;29;20040;-74
2021/01/18 12:44:59;;;;;;;22.63;7.97;;;6.50;91.40;;;;;;4907023;29;20043;-75
2021/01/18 12:47:25;;;;;;;23.20;7.97;;;6.60;91.50;;;;;;4931643;29;20039;-73
2021/01/18 12:49:51;;;;;;;21.13;8.17;;;6.60;91.50;;;;;;4956880;29;20106;-75
2021/01/18 12:52:16;;;;;;;19.07;7.23;;;6.60;91.60;;;;;;4956891;29;20037;-73
2021/01/18 12:54:46;;;;;;;23.83;8.33;;;6.60;91.60;;;;;;4908092;28;20035;-74
2021/01/18 12:57:12;;;;;;;24.43;8.33;;;6.60;91.60;;;;;;4938960;29;20027;-74
2021/01/18 12:59:38;;;;;;;22.00;7.93;;;6.60;91.60;;;;;;4956699;29;20519;-74
2021/01/18 13:02:07;;;;;;;23.23;7.63;;;6.60;91.60;;;;;;4956490;29;20062;-73